CYPY

Fort Chipewyan Airport

Fort Chipewyan, Alberta, Canada
METAR CYPY 131000Z AUTO 06003KT 9SM CLR M12/M13 A2933 RMK SLP950
Observed Flight Rules
Dec-13 @ 10:00 UTC (50 minutes ago) Visual Flight Rules
Wind Visibility Clouds
60° at 3 knots 9 miles
  • Clear skies
Temperatures Readings
Current -12°C / 10°F
Dewpoint -13°C / 9°F
Humidity 92%
Altimeter 29.33" Hg
Pressure 995 hPa
Elevation 232
METAR CYPY 131000Z AUTO 06003KT 9SM CLR M12/M13 A2933 RMK SLP950
Observed Flight Rules
Dec-13 @ 10:00 UTC
(50 minutes ago)
VFR
Wind Visibility
60° at 3 knots 9 miles
Clouds
  • Clear skies
Temperature Dewpoint
-12°C / 10°F -13°C / 9°F
Humidity Altimeter Pressure
92% 29.33" Hg 995 hPa